AFR1A LFPG-GMMZ
Flight info
| Callsign | AFR1A |
|---|---|
| Flight time | 3h 14m |
| Altitude | 37000 |
| Route | OLZOM DCT KETEX DCT BEBIX DCT ANETO N860 BERUM UG850 FES UV203 TOGMA |
| Aircraft | A319/M-SDE3FGHIRWY/LB1 |
Departure
| Time | 2026-05-06 17:56 |
|---|---|
| Airport | Charles de Gaulle International Airport (LFPG) |
Arrival
| Time | 2026-05-06 21:10 |
|---|---|
| Airport | Ouarzazate International Airport (GMMZ) |
| Time | Latitude | Longitude | Altitude | Speed | Heading |
|---|---|---|---|---|---|
| 2026-05-06 17:39 | 49.00147 | 2.57626 | 347 ft | 0 kts | 356° |
| 2026-05-06 17:46 | 49.00133 | 2.57629 | 347 ft | 2 kts | 354° |
| 2026-05-06 17:47 | 49.00118 | 2.57630 | 347 ft | 2 kts | 356° |
| 2026-05-06 17:47 | 49.00103 | 2.57632 | 347 ft | 2 kts | 356° |
| 2026-05-06 17:47 | 49.00088 | 2.57634 | 346 ft | 2 kts | 355° |
| 2026-05-06 17:47 | 49.00073 | 2.57636 | 346 ft | 1 kts | 6° |
| 2026-05-06 17:48 | 49.00060 | 2.57625 | 346 ft | 2 kts | 55° |
| 2026-05-06 17:48 | 49.00056 | 2.57612 | 347 ft | 0 kts | 82° |
| 2026-05-06 17:48 | 49.00056 | 2.57601 | 347 ft | 0 kts | 86° |
| 2026-05-06 17:51 | 49.00058 | 2.57647 | 346 ft | 8 kts | 87° |
| 2026-05-06 17:51 | 49.00040 | 2.57725 | 345 ft | 6 kts | 141° |
| 2026-05-06 17:51 | 48.99997 | 2.57768 | 344 ft | 9 kts | 126° |
| 2026-05-06 17:51 | 48.99988 | 2.57880 | 342 ft | 12 kts | 86° |
| 2026-05-06 17:52 | 48.99995 | 2.58030 | 339 ft | 17 kts | 85° |
| 2026-05-06 17:52 | 49.00006 | 2.58223 | 336 ft | 19 kts | 86° |
| 2026-05-06 17:52 | 49.00017 | 2.58438 | 333 ft | 21 kts | 85° |
| 2026-05-06 17:52 | 49.00029 | 2.58669 | 330 ft | 22 kts | 85° |
| 2026-05-06 17:53 | 49.00042 | 2.58898 | 328 ft | 21 kts | 85° |
| 2026-05-06 17:53 | 49.00053 | 2.59123 | 327 ft | 21 kts | 86° |
| 2026-05-06 17:53 | 49.00066 | 2.59353 | 327 ft | 21 kts | 86° |
| 2026-05-06 17:53 | 49.00076 | 2.59547 | 327 ft | 17 kts | 86° |
| 2026-05-06 17:54 | 49.00050 | 2.59641 | 326 ft | 9 kts | 160° |
| 2026-05-06 17:54 | 48.99976 | 2.59654 | 324 ft | 12 kts | 175° |
| 2026-05-06 17:54 | 48.99883 | 2.59665 | 323 ft | 12 kts | 176° |
| 2026-05-06 17:54 | 48.99809 | 2.59623 | 321 ft | 9 kts | 233° |
| 2026-05-06 17:55 | 48.99794 | 2.59488 | 321 ft | 24 kts | 266° |
| 2026-05-06 17:55 | 48.99763 | 2.58899 | 324 ft | 88 kts | 266° |
| 2026-05-06 17:55 | 48.99695 | 2.57668 | 342 ft | 144 kts | 266° |
| 2026-05-06 17:55 | 48.99599 | 2.55965 | 561 ft | 170 kts | 268° |
| 2026-05-06 17:56 | 48.99498 | 2.54220 | 1221 ft | 168 kts | 269° |
| 2026-05-06 17:56 | 48.99397 | 2.52413 | 1792 ft | 177 kts | 270° |
| 2026-05-06 17:56 | 48.99298 | 2.50538 | 2456 ft | 178 kts | 270° |
| 2026-05-06 17:56 | 48.99202 | 2.48629 | 2803 ft | 193 kts | 270° |
| 2026-05-06 17:57 | 48.99100 | 2.46487 | 3140 ft | 211 kts | 270° |
| 2026-05-06 17:57 | 48.98982 | 2.44144 | 3492 ft | 231 kts | 269° |
| 2026-05-06 17:57 | 48.98848 | 2.41707 | 4205 ft | 235 kts | 269° |
| 2026-05-06 17:57 | 48.98709 | 2.39242 | 4988 ft | 236 kts | 268° |
| 2026-05-06 17:58 | 48.98568 | 2.36741 | 5767 ft | 239 kts | 268° |
| 2026-05-06 17:58 | 48.98428 | 2.34231 | 6527 ft | 242 kts | 267° |
| 2026-05-06 17:58 | 48.98287 | 2.31702 | 7277 ft | 244 kts | 267° |
| 2026-05-06 17:58 | 48.98144 | 2.29139 | 8036 ft | 247 kts | 267° |
| 2026-05-06 17:59 | 48.97998 | 2.26543 | 8793 ft | 249 kts | 267° |
| 2026-05-06 17:59 | 48.97851 | 2.23927 | 9546 ft | 251 kts | 267° |
| 2026-05-06 17:59 | 48.97700 | 2.21264 | 10291 ft | 253 kts | 267° |
| 2026-05-06 17:59 | 48.97550 | 2.18621 | 10992 ft | 255 kts | 266° |
| 2026-05-06 18:00 | 48.97396 | 2.15942 | 11674 ft | 257 kts | 266° |
| 2026-05-06 18:00 | 48.97240 | 2.13228 | 12326 ft | 260 kts | 267° |
| 2026-05-06 18:00 | 48.97083 | 2.10516 | 12950 ft | 262 kts | 266° |
| 2026-05-06 18:00 | 48.96921 | 2.07730 | 13559 ft | 264 kts | 266° |
| 2026-05-06 18:01 | 48.96761 | 2.04949 | 14142 ft | 267 kts | 266° |
| 2026-05-06 18:01 | 48.96395 | 2.02178 | 14687 ft | 273 kts | 245° |
| 2026-05-06 18:01 | 48.95217 | 1.99920 | 15217 ft | 279 kts | 217° |
| 2026-05-06 18:01 | 48.93452 | 1.98731 | 15765 ft | 283 kts | 192° |
| 2026-05-06 18:02 | 48.91505 | 1.98356 | 16306 ft | 286 kts | 176° |
| 2026-05-06 18:02 | 48.89600 | 1.99134 | 16810 ft | 288 kts | 149° |
| 2026-05-06 18:02 | 48.88090 | 2.01109 | 17144 ft | 297 kts | 124° |
| 2026-05-06 18:02 | 48.86980 | 2.03847 | 17413 ft | 309 kts | 119° |
| 2026-05-06 18:03 | 48.85893 | 2.06704 | 17669 ft | 323 kts | 120° |
| 2026-05-06 18:03 | 48.84738 | 2.09696 | 17922 ft | 336 kts | 120° |
| 2026-05-06 18:03 | 48.83524 | 2.12783 | 18171 ft | 350 kts | 120° |
| 2026-05-06 18:03 | 48.82248 | 2.15988 | 18416 ft | 363 kts | 121° |
| 2026-05-06 18:04 | 48.80910 | 2.19327 | 18661 ft | 376 kts | 121° |
| 2026-05-06 18:04 | 48.79539 | 2.22736 | 18904 ft | 387 kts | 121° |
| 2026-05-06 18:04 | 48.78121 | 2.26253 | 19341 ft | 393 kts | 121° |
| 2026-05-06 18:04 | 48.76693 | 2.29786 | 19889 ft | 396 kts | 121° |
| 2026-05-06 18:05 | 48.75186 | 2.33329 | 20421 ft | 399 kts | 128° |
| 2026-05-06 18:05 | 48.73136 | 2.36105 | 20878 ft | 402 kts | 149° |
| 2026-05-06 18:05 | 48.70539 | 2.37680 | 21389 ft | 403 kts | 168° |
| 2026-05-06 18:05 | 48.67759 | 2.37878 | 21864 ft | 404 kts | 187° |
| 2026-05-06 18:06 | 48.65007 | 2.37257 | 22366 ft | 405 kts | 189° |
| 2026-05-06 18:06 | 48.62198 | 2.36597 | 22821 ft | 409 kts | 189° |
| 2026-05-06 18:06 | 48.59395 | 2.35953 | 23275 ft | 412 kts | 189° |
| 2026-05-06 18:06 | 48.56533 | 2.35309 | 23744 ft | 414 kts | 188° |
| 2026-05-06 18:07 | 48.53682 | 2.34677 | 24192 ft | 417 kts | 188° |
| 2026-05-06 18:07 | 48.50791 | 2.34041 | 24624 ft | 420 kts | 188° |
| 2026-05-06 18:07 | 48.47906 | 2.33408 | 25014 ft | 423 kts | 188° |
| 2026-05-06 18:07 | 48.45001 | 2.32776 | 25408 ft | 426 kts | 188° |
| 2026-05-06 18:08 | 48.42063 | 2.32137 | 25812 ft | 429 kts | 188° |
| 2026-05-06 18:08 | 48.39084 | 2.31493 | 26237 ft | 431 kts | 188° |
| 2026-05-06 18:08 | 48.36089 | 2.30846 | 26666 ft | 433 kts | 188° |
| 2026-05-06 18:08 | 48.33128 | 2.30208 | 27079 ft | 434 kts | 188° |
| 2026-05-06 18:09 | 48.30133 | 2.29562 | 27474 ft | 436 kts | 187° |
| 2026-05-06 18:09 | 48.27101 | 2.28906 | 27834 ft | 439 kts | 187° |
| 2026-05-06 18:09 | 48.24062 | 2.28283 | 28180 ft | 441 kts | 184° |
| 2026-05-06 18:09 | 48.21000 | 2.28420 | 28493 ft | 442 kts | 172° |
| 2026-05-06 18:10 | 48.17931 | 2.29004 | 28881 ft | 444 kts | 172° |
| 2026-05-06 18:10 | 48.14890 | 2.29608 | 29281 ft | 445 kts | 172° |
| 2026-05-06 18:10 | 48.11828 | 2.30198 | 29792 ft | 442 kts | 172° |
| 2026-05-06 18:10 | 48.08780 | 2.30766 | 30324 ft | 439 kts | 172° |
| 2026-05-06 18:11 | 48.05760 | 2.31263 | 30820 ft | 438 kts | 176° |
| 2026-05-06 18:11 | 48.02758 | 2.30932 | 31222 ft | 438 kts | 191° |
| 2026-05-06 18:11 | 47.99827 | 2.29711 | 31603 ft | 437 kts | 196° |
| 2026-05-06 18:11 | 47.96917 | 2.28366 | 31933 ft | 436 kts | 197° |
| 2026-05-06 18:12 | 47.94006 | 2.27014 | 32217 ft | 437 kts | 197° |
| 2026-05-06 18:12 | 47.91096 | 2.25671 | 32495 ft | 438 kts | 197° |
| 2026-05-06 18:12 | 47.88170 | 2.24330 | 32750 ft | 438 kts | 197° |
| 2026-05-06 18:12 | 47.85260 | 2.23003 | 32977 ft | 439 kts | 197° |
| 2026-05-06 18:13 | 47.82339 | 2.21677 | 33211 ft | 439 kts | 197° |
| 2026-05-06 18:13 | 47.79399 | 2.20344 | 33441 ft | 440 kts | 197° |
| 2026-05-06 18:13 | 47.76472 | 2.19020 | 33671 ft | 440 kts | 197° |
| 2026-05-06 18:13 | 47.73555 | 2.17703 | 33890 ft | 440 kts | 197° |
| 2026-05-06 18:14 | 47.70636 | 2.16387 | 34102 ft | 441 kts | 197° |
| 2026-05-06 18:14 | 47.67694 | 2.15063 | 34296 ft | 441 kts | 197° |
| 2026-05-06 18:14 | 47.64724 | 2.13728 | 34513 ft | 442 kts | 197° |
| 2026-05-06 18:14 | 47.61774 | 2.12402 | 34724 ft | 442 kts | 197° |
| 2026-05-06 18:15 | 47.58842 | 2.11087 | 34956 ft | 441 kts | 197° |
| 2026-05-06 18:15 | 47.55886 | 2.09763 | 35189 ft | 441 kts | 197° |
| 2026-05-06 18:15 | 47.52970 | 2.08458 | 35370 ft | 441 kts | 198° |
| 2026-05-06 18:15 | 47.50027 | 2.07142 | 35528 ft | 442 kts | 198° |
| 2026-05-06 18:16 | 47.47084 | 2.05828 | 35699 ft | 443 kts | 198° |
| 2026-05-06 18:16 | 47.44145 | 2.04518 | 35864 ft | 443 kts | 198° |
| 2026-05-06 18:16 | 47.41215 | 2.03215 | 36019 ft | 443 kts | 198° |
| 2026-05-06 18:16 | 47.38274 | 2.01908 | 36171 ft | 443 kts | 198° |
| 2026-05-06 18:17 | 47.35281 | 2.00581 | 36342 ft | 444 kts | 198° |
| 2026-05-06 18:17 | 47.32342 | 1.99278 | 36479 ft | 444 kts | 198° |
| 2026-05-06 18:17 | 47.29371 | 1.97961 | 36607 ft | 445 kts | 198° |
| 2026-05-06 18:17 | 47.26414 | 1.96652 | 36732 ft | 446 kts | 198° |
| 2026-05-06 18:18 | 47.23466 | 1.95349 | 36858 ft | 447 kts | 198° |
| 2026-05-06 18:18 | 47.20486 | 1.94033 | 36915 ft | 448 kts | 198° |
| 2026-05-06 18:18 | 47.14496 | 1.91392 | 36919 ft | 449 kts | 198° |
| 2026-05-06 18:19 | 47.08540 | 1.88772 | 36925 ft | 448 kts | 198° |
| 2026-05-06 18:19 | 47.02562 | 1.86149 | 36924 ft | 449 kts | 198° |
| 2026-05-06 18:20 | 46.96584 | 1.83531 | 36924 ft | 449 kts | 198° |
| 2026-05-06 18:20 | 46.90614 | 1.80923 | 36930 ft | 448 kts | 198° |
| 2026-05-06 18:21 | 46.84626 | 1.78314 | 36919 ft | 448 kts | 198° |
| 2026-05-06 18:21 | 46.78619 | 1.75702 | 36929 ft | 449 kts | 198° |
| 2026-05-06 18:22 | 46.72628 | 1.73104 | 36925 ft | 449 kts | 198° |
| 2026-05-06 18:22 | 46.66629 | 1.70507 | 36920 ft | 449 kts | 198° |
| 2026-05-06 18:23 | 46.60639 | 1.67922 | 36917 ft | 448 kts | 198° |
| 2026-05-06 18:23 | 46.54653 | 1.65343 | 36913 ft | 448 kts | 198° |
| 2026-05-06 18:24 | 46.48706 | 1.62786 | 36915 ft | 448 kts | 198° |
| 2026-05-06 18:24 | 46.42741 | 1.60230 | 36916 ft | 448 kts | 198° |
| 2026-05-06 18:25 | 46.36745 | 1.57664 | 36915 ft | 448 kts | 198° |
| 2026-05-06 18:25 | 46.30766 | 1.55113 | 36909 ft | 448 kts | 198° |
| 2026-05-06 18:26 | 46.24761 | 1.52554 | 36909 ft | 448 kts | 198° |
| 2026-05-06 18:26 | 46.18783 | 1.50017 | 36909 ft | 448 kts | 198° |
| 2026-05-06 18:27 | 46.12819 | 1.47489 | 36910 ft | 448 kts | 198° |
| 2026-05-06 18:27 | 46.06849 | 1.44965 | 36906 ft | 448 kts | 198° |
| 2026-05-06 18:28 | 46.00879 | 1.42448 | 36901 ft | 448 kts | 198° |
| 2026-05-06 18:28 | 45.94877 | 1.40018 | 36896 ft | 449 kts | 195° |
| 2026-05-06 18:29 | 45.88725 | 1.38241 | 36893 ft | 449 kts | 193° |
| 2026-05-06 18:29 | 45.82716 | 1.36598 | 36901 ft | 449 kts | 193° |
| 2026-05-06 18:30 | 45.76709 | 1.34962 | 36895 ft | 449 kts | 192° |
| 2026-05-06 18:30 | 45.70580 | 1.33296 | 36892 ft | 449 kts | 192° |
| 2026-05-06 18:31 | 45.64437 | 1.31633 | 36892 ft | 448 kts | 192° |
| 2026-05-06 18:31 | 45.58312 | 1.29978 | 36896 ft | 448 kts | 192° |
| 2026-05-06 18:32 | 45.52150 | 1.28316 | 36896 ft | 448 kts | 192° |
| 2026-05-06 18:32 | 45.46057 | 1.26679 | 36899 ft | 448 kts | 192° |
| 2026-05-06 18:33 | 45.39909 | 1.25027 | 36898 ft | 448 kts | 192° |
| 2026-05-06 18:33 | 45.33794 | 1.23389 | 36896 ft | 448 kts | 192° |
| 2026-05-06 18:34 | 45.27665 | 1.21753 | 36899 ft | 447 kts | 192° |
| 2026-05-06 18:34 | 45.21550 | 1.20122 | 36899 ft | 448 kts | 193° |
| 2026-05-06 18:35 | 45.15532 | 1.18521 | 36900 ft | 448 kts | 193° |
| 2026-05-06 18:35 | 45.09398 | 1.16894 | 36896 ft | 447 kts | 193° |
| 2026-05-06 18:36 | 45.03304 | 1.15280 | 36898 ft | 447 kts | 193° |
| 2026-05-06 18:36 | 44.97149 | 1.13654 | 36893 ft | 446 kts | 193° |
| 2026-05-06 18:37 | 44.91089 | 1.12055 | 36896 ft | 446 kts | 193° |
| 2026-05-06 18:37 | 44.84990 | 1.10448 | 36898 ft | 446 kts | 193° |
| 2026-05-06 18:38 | 44.79287 | 1.08952 | 36897 ft | 446 kts | 193° |
| 2026-05-06 18:38 | 44.73178 | 1.07351 | 36894 ft | 446 kts | 193° |
| 2026-05-06 18:39 | 44.67056 | 1.05750 | 36904 ft | 446 kts | 193° |
| 2026-05-06 18:40 | 44.57917 | 1.03366 | 36904 ft | 445 kts | 193° |
| 2026-05-06 18:40 | 44.51825 | 1.01782 | 36910 ft | 445 kts | 193° |
| 2026-05-06 18:41 | 44.45788 | 1.00215 | 36915 ft | 444 kts | 193° |
| 2026-05-06 18:41 | 44.39679 | 0.98632 | 36924 ft | 444 kts | 193° |
| 2026-05-06 18:42 | 44.33616 | 0.97064 | 36921 ft | 444 kts | 193° |
| 2026-05-06 18:42 | 44.27566 | 0.95503 | 36924 ft | 444 kts | 193° |
| 2026-05-06 18:43 | 44.21505 | 0.93946 | 36925 ft | 443 kts | 193° |
| 2026-05-06 18:43 | 44.15449 | 0.92390 | 36930 ft | 442 kts | 193° |
| 2026-05-06 18:44 | 44.09405 | 0.90841 | 36929 ft | 442 kts | 193° |
| 2026-05-06 18:44 | 44.03409 | 0.89306 | 36930 ft | 441 kts | 193° |
| 2026-05-06 18:45 | 43.97347 | 0.87757 | 36932 ft | 441 kts | 193° |
| 2026-05-06 18:45 | 43.91330 | 0.86228 | 36939 ft | 441 kts | 194° |
| 2026-05-06 18:46 | 43.85316 | 0.84698 | 36937 ft | 441 kts | 194° |
| 2026-05-06 18:46 | 43.79570 | 0.83241 | 36948 ft | 441 kts | 194° |
| 2026-05-06 18:47 | 43.73741 | 0.81767 | 36952 ft | 441 kts | 194° |
| 2026-05-06 18:47 | 43.67697 | 0.80241 | 36962 ft | 439 kts | 194° |
| 2026-05-06 18:48 | 43.61702 | 0.78728 | 36960 ft | 439 kts | 194° |
| 2026-05-06 18:48 | 43.55723 | 0.77224 | 36957 ft | 439 kts | 194° |
| 2026-05-06 18:49 | 43.49685 | 0.75708 | 36966 ft | 438 kts | 194° |
| 2026-05-06 18:49 | 43.43737 | 0.74216 | 36967 ft | 438 kts | 194° |
| 2026-05-06 18:50 | 43.37738 | 0.72717 | 36976 ft | 438 kts | 194° |
| 2026-05-06 18:50 | 43.31760 | 0.71223 | 36981 ft | 437 kts | 194° |
| 2026-05-06 18:51 | 43.25817 | 0.69743 | 36983 ft | 436 kts | 194° |
| 2026-05-06 18:51 | 43.19827 | 0.68256 | 36988 ft | 435 kts | 195° |
| 2026-05-06 18:52 | 43.13880 | 0.66780 | 36994 ft | 435 kts | 195° |
| 2026-05-06 18:52 | 43.07939 | 0.65308 | 36991 ft | 435 kts | 195° |
| 2026-05-06 18:53 | 43.01986 | 0.63837 | 36985 ft | 435 kts | 195° |
| 2026-05-06 18:53 | 42.96017 | 0.62365 | 36992 ft | 435 kts | 195° |
| 2026-05-06 18:54 | 42.90100 | 0.60910 | 36979 ft | 434 kts | 195° |
| 2026-05-06 18:54 | 42.84156 | 0.59451 | 36965 ft | 433 kts | 195° |
| 2026-05-06 18:55 | 42.78228 | 0.57999 | 36965 ft | 433 kts | 195° |
| 2026-05-06 18:55 | 42.72284 | 0.56546 | 36955 ft | 433 kts | 195° |
| 2026-05-06 18:55 | 42.69358 | 0.55830 | 36792 ft | 433 kts | 195° |
| 2026-05-06 18:56 | 42.66369 | 0.55076 | 36871 ft | 434 kts | 195° |
| 2026-05-06 18:56 | 42.60436 | 0.53538 | 36858 ft | 433 kts | 195° |
| 2026-05-06 18:57 | 42.54526 | 0.52016 | 36925 ft | 434 kts | 195° |
| 2026-05-06 18:57 | 42.48597 | 0.50494 | 36943 ft | 434 kts | 195° |
| 2026-05-06 18:58 | 42.42668 | 0.48982 | 36950 ft | 434 kts | 195° |
| 2026-05-06 18:58 | 42.36749 | 0.47472 | 36945 ft | 434 kts | 195° |
| 2026-05-06 18:59 | 42.30836 | 0.45962 | 36929 ft | 433 kts | 195° |
| 2026-05-06 18:59 | 42.24943 | 0.44459 | 36929 ft | 433 kts | 195° |
| 2026-05-06 19:00 | 42.19030 | 0.42958 | 36928 ft | 433 kts | 196° |
| 2026-05-06 19:00 | 42.13122 | 0.41460 | 36911 ft | 432 kts | 196° |
| 2026-05-06 19:01 | 42.07202 | 0.39964 | 36912 ft | 432 kts | 196° |
| 2026-05-06 19:01 | 42.01324 | 0.38481 | 36904 ft | 431 kts | 196° |
| 2026-05-06 19:02 | 41.95438 | 0.36996 | 36907 ft | 431 kts | 196° |
| 2026-05-06 19:02 | 41.89554 | 0.35514 | 36908 ft | 431 kts | 196° |
| 2026-05-06 19:03 | 41.83655 | 0.34034 | 36914 ft | 431 kts | 195° |
| 2026-05-06 19:03 | 41.77813 | 0.32574 | 36913 ft | 430 kts | 195° |
| 2026-05-06 19:04 | 41.71947 | 0.31103 | 36910 ft | 430 kts | 195° |
| 2026-05-06 19:04 | 41.66079 | 0.29635 | 36912 ft | 430 kts | 195° |
| 2026-05-06 19:05 | 41.60191 | 0.28168 | 36917 ft | 429 kts | 195° |
| 2026-05-06 19:05 | 41.54335 | 0.26713 | 36920 ft | 428 kts | 195° |
| 2026-05-06 19:06 | 41.48512 | 0.25266 | 36921 ft | 428 kts | 195° |
| 2026-05-06 19:06 | 41.42632 | 0.23812 | 36924 ft | 427 kts | 195° |
| 2026-05-06 19:07 | 41.36808 | 0.22374 | 36922 ft | 426 kts | 195° |
| 2026-05-06 19:07 | 41.31012 | 0.20942 | 36918 ft | 427 kts | 195° |
| 2026-05-06 19:08 | 41.25182 | 0.19505 | 36918 ft | 426 kts | 195° |
| 2026-05-06 19:08 | 41.19363 | 0.18073 | 36922 ft | 426 kts | 196° |
| 2026-05-06 19:09 | 41.13555 | 0.16565 | 36923 ft | 424 kts | 198° |
| 2026-05-06 19:09 | 41.07939 | 0.14458 | 36930 ft | 421 kts | 202° |
| 2026-05-06 19:10 | 41.02338 | 0.12204 | 36933 ft | 421 kts | 202° |
| 2026-05-06 19:10 | 40.96734 | 0.09953 | 36940 ft | 421 kts | 202° |
| 2026-05-06 19:11 | 40.91130 | 0.07703 | 36953 ft | 420 kts | 202° |
| 2026-05-06 19:11 | 40.85532 | 0.05456 | 36949 ft | 419 kts | 202° |
| 2026-05-06 19:12 | 40.79975 | 0.03225 | 36951 ft | 419 kts | 202° |
| 2026-05-06 19:12 | 40.74407 | 0.00998 | 36948 ft | 418 kts | 202° |
| 2026-05-06 19:13 | 40.68856 | -0.01218 | 36948 ft | 418 kts | 202° |
| 2026-05-06 19:13 | 40.63294 | -0.03433 | 36952 ft | 417 kts | 202° |
| 2026-05-06 19:14 | 40.57717 | -0.05650 | 36957 ft | 418 kts | 202° |
| 2026-05-06 19:14 | 40.52197 | -0.07845 | 36954 ft | 417 kts | 202° |
| 2026-05-06 19:15 | 40.46634 | -0.10053 | 36960 ft | 417 kts | 202° |
| 2026-05-06 19:15 | 40.41096 | -0.12245 | 36955 ft | 416 kts | 202° |
| 2026-05-06 19:16 | 40.35546 | -0.14436 | 36957 ft | 415 kts | 202° |
| 2026-05-06 19:16 | 40.30024 | -0.16612 | 36957 ft | 415 kts | 202° |
| 2026-05-06 19:17 | 40.24511 | -0.18785 | 36956 ft | 414 kts | 202° |
| 2026-05-06 19:17 | 40.19006 | -0.20952 | 36953 ft | 414 kts | 202° |
| 2026-05-06 19:18 | 40.13473 | -0.23124 | 36956 ft | 414 kts | 202° |
| 2026-05-06 19:18 | 40.07989 | -0.25271 | 36958 ft | 413 kts | 202° |
| 2026-05-06 19:19 | 40.02471 | -0.27428 | 36945 ft | 413 kts | 202° |
| 2026-05-06 19:19 | 39.96975 | -0.29574 | 36947 ft | 413 kts | 202° |
| 2026-05-06 19:20 | 39.91479 | -0.31714 | 36946 ft | 413 kts | 202° |
| 2026-05-06 19:20 | 39.85982 | -0.33853 | 36944 ft | 412 kts | 202° |
| 2026-05-06 19:21 | 39.80483 | -0.35993 | 36942 ft | 411 kts | 202° |
| 2026-05-06 19:21 | 39.75032 | -0.38109 | 36936 ft | 411 kts | 202° |
| 2026-05-06 19:22 | 39.69550 | -0.40231 | 36939 ft | 411 kts | 202° |
| 2026-05-06 19:22 | 39.64067 | -0.42350 | 36934 ft | 410 kts | 202° |
| 2026-05-06 19:23 | 39.58601 | -0.44458 | 36934 ft | 410 kts | 202° |
| 2026-05-06 19:23 | 39.53164 | -0.46563 | 36929 ft | 410 kts | 203° |
| 2026-05-06 19:24 | 39.47872 | -0.49127 | 36925 ft | 406 kts | 209° |
| 2026-05-06 19:24 | 39.42843 | -0.52341 | 36918 ft | 402 kts | 213° |
| 2026-05-06 19:25 | 39.37920 | -0.55759 | 36917 ft | 403 kts | 213° |
| 2026-05-06 19:25 | 39.32992 | -0.59173 | 36915 ft | 402 kts | 213° |
| 2026-05-06 19:26 | 39.28059 | -0.62597 | 36918 ft | 402 kts | 213° |
| 2026-05-06 19:26 | 39.23154 | -0.65994 | 36921 ft | 401 kts | 212° |
| 2026-05-06 19:27 | 39.18237 | -0.69395 | 36923 ft | 402 kts | 213° |
| 2026-05-06 19:27 | 39.13308 | -0.72801 | 36921 ft | 401 kts | 212° |
| 2026-05-06 19:28 | 39.08390 | -0.76193 | 36933 ft | 402 kts | 212° |
| 2026-05-06 19:28 | 39.03467 | -0.79584 | 36937 ft | 402 kts | 212° |
| 2026-05-06 19:29 | 38.98561 | -0.82959 | 36937 ft | 402 kts | 213° |
| 2026-05-06 19:29 | 38.93655 | -0.86329 | 36933 ft | 401 kts | 212° |
| 2026-05-06 19:30 | 38.88715 | -0.89713 | 36945 ft | 402 kts | 212° |
| 2026-05-06 19:30 | 38.83791 | -0.93083 | 36944 ft | 401 kts | 212° |
| 2026-05-06 19:31 | 38.78860 | -0.96449 | 36943 ft | 400 kts | 212° |
| 2026-05-06 19:31 | 38.71496 | -1.01468 | 36938 ft | 400 kts | 212° |
| 2026-05-06 19:32 | 38.66597 | -1.04807 | 36945 ft | 399 kts | 212° |
| 2026-05-06 19:32 | 38.61718 | -1.08126 | 36945 ft | 399 kts | 212° |
| 2026-05-06 19:33 | 38.56807 | -1.11458 | 36936 ft | 399 kts | 212° |
| 2026-05-06 19:33 | 38.51923 | -1.14766 | 36937 ft | 399 kts | 212° |
| 2026-05-06 19:34 | 38.47026 | -1.18078 | 36940 ft | 399 kts | 212° |
| 2026-05-06 19:34 | 38.42112 | -1.21396 | 36928 ft | 399 kts | 213° |
| 2026-05-06 19:35 | 38.37223 | -1.24694 | 36924 ft | 398 kts | 212° |
| 2026-05-06 19:35 | 38.32355 | -1.27971 | 36927 ft | 398 kts | 213° |
| 2026-05-06 19:36 | 38.27449 | -1.31270 | 36927 ft | 398 kts | 212° |
| 2026-05-06 19:36 | 38.22548 | -1.34559 | 36918 ft | 397 kts | 212° |
| 2026-05-06 19:37 | 38.17691 | -1.37811 | 36918 ft | 397 kts | 212° |
| 2026-05-06 19:37 | 38.12815 | -1.41075 | 36915 ft | 397 kts | 212° |
| 2026-05-06 19:38 | 38.07910 | -1.44352 | 36912 ft | 397 kts | 212° |
| 2026-05-06 19:38 | 38.03025 | -1.47609 | 36914 ft | 397 kts | 212° |
| 2026-05-06 19:39 | 37.98158 | -1.50849 | 36915 ft | 397 kts | 213° |
| 2026-05-06 19:39 | 37.93288 | -1.54086 | 36918 ft | 396 kts | 212° |
| 2026-05-06 19:40 | 37.88372 | -1.57334 | 36923 ft | 397 kts | 212° |
| 2026-05-06 19:40 | 37.83485 | -1.60514 | 36922 ft | 397 kts | 212° |
| 2026-05-06 19:41 | 37.78560 | -1.63715 | 36921 ft | 396 kts | 212° |
| 2026-05-06 19:41 | 37.73671 | -1.66889 | 36925 ft | 396 kts | 211° |
| 2026-05-06 19:42 | 37.68752 | -1.70075 | 36913 ft | 396 kts | 211° |
| 2026-05-06 19:42 | 37.63891 | -1.73220 | 36925 ft | 396 kts | 212° |
| 2026-05-06 19:43 | 37.58998 | -1.76382 | 36913 ft | 394 kts | 212° |
| 2026-05-06 19:43 | 37.54117 | -1.79533 | 36914 ft | 394 kts | 212° |
| 2026-05-06 19:44 | 37.49250 | -1.82668 | 36920 ft | 394 kts | 212° |
| 2026-05-06 19:44 | 37.44363 | -1.85812 | 36925 ft | 394 kts | 212° |
| 2026-05-06 19:45 | 37.39482 | -1.88947 | 36931 ft | 394 kts | 211° |
| 2026-05-06 19:45 | 37.34618 | -1.92065 | 36935 ft | 394 kts | 212° |
| 2026-05-06 19:46 | 37.29733 | -1.95195 | 36927 ft | 393 kts | 211° |
| 2026-05-06 19:46 | 37.24874 | -1.98301 | 36912 ft | 393 kts | 212° |
| 2026-05-06 19:47 | 37.20052 | -2.01496 | 36917 ft | 392 kts | 213° |
| 2026-05-06 19:47 | 37.15245 | -2.04726 | 36916 ft | 392 kts | 213° |
| 2026-05-06 19:48 | 37.10454 | -2.07930 | 36911 ft | 391 kts | 213° |
| 2026-05-06 19:48 | 37.05634 | -2.11143 | 36918 ft | 391 kts | 213° |
| 2026-05-06 19:49 | 37.00857 | -2.14322 | 36921 ft | 390 kts | 213° |
| 2026-05-06 19:49 | 36.96077 | -2.17497 | 36916 ft | 390 kts | 213° |
| 2026-05-06 19:50 | 36.91262 | -2.20689 | 36920 ft | 390 kts | 213° |
| 2026-05-06 19:50 | 36.86486 | -2.23900 | 36910 ft | 389 kts | 214° |
| 2026-05-06 19:51 | 36.81957 | -2.27528 | 36906 ft | 386 kts | 219° |
| 2026-05-06 19:51 | 36.77734 | -2.31614 | 36902 ft | 385 kts | 222° |
| 2026-05-06 19:52 | 36.73580 | -2.35764 | 36907 ft | 384 kts | 222° |
| 2026-05-06 19:52 | 36.69407 | -2.39936 | 36895 ft | 383 kts | 222° |
| 2026-05-06 19:53 | 36.65256 | -2.44091 | 36894 ft | 383 kts | 222° |
| 2026-05-06 19:53 | 36.61120 | -2.48227 | 36897 ft | 383 kts | 222° |
| 2026-05-06 19:54 | 36.56974 | -2.52365 | 36900 ft | 382 kts | 222° |
| 2026-05-06 19:54 | 36.52838 | -2.56490 | 36897 ft | 382 kts | 222° |
| 2026-05-06 19:55 | 36.48709 | -2.60603 | 36903 ft | 381 kts | 222° |
| 2026-05-06 19:55 | 36.44550 | -2.64686 | 36895 ft | 381 kts | 221° |
| 2026-05-06 19:56 | 36.40334 | -2.68720 | 36892 ft | 381 kts | 221° |
| 2026-05-06 19:56 | 36.36147 | -2.72730 | 36889 ft | 380 kts | 221° |
| 2026-05-06 19:57 | 36.31971 | -2.76725 | 36880 ft | 380 kts | 221° |
| 2026-05-06 19:57 | 36.27790 | -2.80722 | 36876 ft | 380 kts | 221° |
| 2026-05-06 19:58 | 36.23608 | -2.84711 | 36878 ft | 380 kts | 221° |
| 2026-05-06 19:58 | 36.19427 | -2.88705 | 36868 ft | 380 kts | 221° |
| 2026-05-06 19:59 | 36.15282 | -2.92736 | 36875 ft | 381 kts | 221° |
| 2026-05-06 19:59 | 36.11117 | -2.96786 | 36874 ft | 380 kts | 221° |
| 2026-05-06 20:00 | 36.06951 | -3.00820 | 36872 ft | 380 kts | 221° |
| 2026-05-06 20:00 | 36.02820 | -3.04817 | 36863 ft | 379 kts | 221° |
| 2026-05-06 20:01 | 35.98668 | -3.08827 | 36870 ft | 379 kts | 221° |
| 2026-05-06 20:01 | 35.94511 | -3.12838 | 36869 ft | 378 kts | 221° |
| 2026-05-06 20:02 | 35.90384 | -3.16808 | 36864 ft | 379 kts | 221° |
| 2026-05-06 20:02 | 35.86273 | -3.20763 | 36868 ft | 378 kts | 221° |
| 2026-05-06 20:03 | 35.82117 | -3.24745 | 36871 ft | 377 kts | 221° |
| 2026-05-06 20:03 | 35.77962 | -3.28660 | 36868 ft | 377 kts | 221° |
| 2026-05-06 20:04 | 35.73816 | -3.32557 | 36870 ft | 376 kts | 221° |
| 2026-05-06 20:04 | 35.69647 | -3.36471 | 36869 ft | 376 kts | 221° |
| 2026-05-06 20:05 | 35.65506 | -3.40356 | 36869 ft | 375 kts | 221° |
| 2026-05-06 20:05 | 35.61379 | -3.44219 | 36869 ft | 373 kts | 221° |
| 2026-05-06 20:06 | 35.57249 | -3.48083 | 36871 ft | 373 kts | 221° |
| 2026-05-06 20:06 | 35.53142 | -3.51922 | 36872 ft | 372 kts | 221° |
| 2026-05-06 20:07 | 35.49027 | -3.55757 | 36878 ft | 370 kts | 221° |
| 2026-05-06 20:07 | 35.44937 | -3.59573 | 36876 ft | 371 kts | 221° |
| 2026-05-06 20:08 | 35.40844 | -3.63380 | 36884 ft | 369 kts | 221° |
| 2026-05-06 20:08 | 35.36754 | -3.67178 | 36887 ft | 369 kts | 221° |
| 2026-05-06 20:09 | 35.32642 | -3.71000 | 36888 ft | 369 kts | 220° |
| 2026-05-06 20:09 | 35.28566 | -3.74778 | 36893 ft | 368 kts | 220° |
| 2026-05-06 20:10 | 35.24504 | -3.78530 | 36901 ft | 367 kts | 221° |
| 2026-05-06 20:10 | 35.20414 | -3.82317 | 36898 ft | 367 kts | 221° |
| 2026-05-06 20:11 | 35.16393 | -3.86083 | 36903 ft | 365 kts | 221° |
| 2026-05-06 20:11 | 35.12386 | -3.89911 | 36907 ft | 365 kts | 221° |
| 2026-05-06 20:12 | 35.08379 | -3.93732 | 36913 ft | 364 kts | 221° |
| 2026-05-06 20:12 | 35.04406 | -3.97513 | 36925 ft | 364 kts | 221° |
| 2026-05-06 20:13 | 35.00423 | -4.01296 | 36938 ft | 363 kts | 221° |
| 2026-05-06 20:13 | 34.96446 | -4.05070 | 36944 ft | 362 kts | 221° |
| 2026-05-06 20:14 | 34.92479 | -4.08824 | 36941 ft | 363 kts | 221° |
| 2026-05-06 20:14 | 34.88478 | -4.12607 | 36948 ft | 363 kts | 221° |
| 2026-05-06 20:15 | 34.84468 | -4.16395 | 36957 ft | 364 kts | 221° |
| 2026-05-06 20:15 | 34.80481 | -4.20155 | 36960 ft | 364 kts | 221° |
| 2026-05-06 20:16 | 34.76458 | -4.23949 | 36960 ft | 364 kts | 221° |
| 2026-05-06 20:16 | 34.72472 | -4.27697 | 36960 ft | 363 kts | 221° |
| 2026-05-06 20:17 | 34.68489 | -4.31438 | 36955 ft | 363 kts | 221° |
| 2026-05-06 20:17 | 34.64494 | -4.35190 | 36950 ft | 364 kts | 221° |
| 2026-05-06 20:18 | 34.60499 | -4.38929 | 36946 ft | 364 kts | 221° |
| 2026-05-06 20:18 | 34.56488 | -4.42685 | 36941 ft | 362 kts | 221° |
| 2026-05-06 20:19 | 34.52508 | -4.46403 | 36938 ft | 362 kts | 221° |
| 2026-05-06 20:19 | 34.48518 | -4.50127 | 36934 ft | 361 kts | 221° |
| 2026-05-06 20:20 | 34.44551 | -4.53833 | 36932 ft | 362 kts | 221° |
| 2026-05-06 20:20 | 34.40578 | -4.57529 | 36927 ft | 361 kts | 221° |
| 2026-05-06 20:21 | 34.36610 | -4.61205 | 36920 ft | 359 kts | 220° |
| 2026-05-06 20:21 | 34.32621 | -4.64872 | 36915 ft | 359 kts | 221° |
| 2026-05-06 20:22 | 34.28627 | -4.68550 | 36909 ft | 360 kts | 221° |
| 2026-05-06 20:22 | 34.24641 | -4.72211 | 36906 ft | 359 kts | 220° |
| 2026-05-06 20:23 | 34.20690 | -4.75834 | 36902 ft | 357 kts | 220° |
| 2026-05-06 20:23 | 34.16746 | -4.79452 | 36906 ft | 356 kts | 220° |
| 2026-05-06 20:24 | 34.12778 | -4.83085 | 36910 ft | 356 kts | 220° |
| 2026-05-06 20:24 | 34.08841 | -4.86682 | 36912 ft | 356 kts | 221° |
| 2026-05-06 20:25 | 34.04904 | -4.90284 | 36914 ft | 353 kts | 221° |
| 2026-05-06 20:25 | 34.00972 | -4.93869 | 36917 ft | 351 kts | 220° |
| 2026-05-06 20:26 | 33.97076 | -4.97416 | 36922 ft | 352 kts | 221° |
| 2026-05-06 20:26 | 33.93073 | -5.00847 | 36925 ft | 355 kts | 217° |
| 2026-05-06 20:27 | 33.88814 | -5.03870 | 36933 ft | 357 kts | 213° |
| 2026-05-06 20:27 | 33.84443 | -5.06718 | 36927 ft | 357 kts | 213° |
| 2026-05-06 20:28 | 33.80069 | -5.09571 | 36940 ft | 358 kts | 214° |
| 2026-05-06 20:28 | 33.75670 | -5.12430 | 36947 ft | 358 kts | 213° |
| 2026-05-06 20:29 | 33.71271 | -5.15280 | 36953 ft | 360 kts | 214° |
| 2026-05-06 20:29 | 33.66848 | -5.18138 | 36959 ft | 362 kts | 213° |
| 2026-05-06 20:30 | 33.60207 | -5.22422 | 36967 ft | 362 kts | 213° |
| 2026-05-06 20:31 | 33.55794 | -5.25269 | 36974 ft | 361 kts | 213° |
| 2026-05-06 20:31 | 33.51362 | -5.28113 | 36980 ft | 361 kts | 214° |
| 2026-05-06 20:32 | 33.46933 | -5.30961 | 36978 ft | 362 kts | 214° |
| 2026-05-06 20:32 | 33.42479 | -5.33822 | 36983 ft | 362 kts | 213° |
| 2026-05-06 20:33 | 33.38040 | -5.36669 | 36979 ft | 361 kts | 213° |
| 2026-05-06 20:33 | 33.33619 | -5.39498 | 36979 ft | 362 kts | 213° |
| 2026-05-06 20:34 | 33.29176 | -5.42336 | 36979 ft | 362 kts | 213° |
| 2026-05-06 20:34 | 33.24730 | -5.45177 | 36975 ft | 362 kts | 213° |
| 2026-05-06 20:35 | 33.20276 | -5.48020 | 36975 ft | 362 kts | 213° |
| 2026-05-06 20:35 | 33.15862 | -5.50833 | 36977 ft | 363 kts | 213° |
| 2026-05-06 20:36 | 33.11414 | -5.53664 | 36978 ft | 362 kts | 213° |
| 2026-05-06 20:36 | 33.06984 | -5.56478 | 36980 ft | 360 kts | 213° |
| 2026-05-06 20:37 | 33.02560 | -5.59290 | 36982 ft | 361 kts | 213° |
| 2026-05-06 20:37 | 32.98130 | -5.62099 | 36977 ft | 362 kts | 213° |
| 2026-05-06 20:38 | 32.93681 | -5.64918 | 36974 ft | 361 kts | 213° |
| 2026-05-06 20:38 | 32.89238 | -5.67729 | 36968 ft | 362 kts | 213° |
| 2026-05-06 20:39 | 32.84753 | -5.70564 | 36954 ft | 362 kts | 213° |
| 2026-05-06 20:39 | 32.80329 | -5.73364 | 36952 ft | 362 kts | 213° |
| 2026-05-06 20:40 | 32.75862 | -5.76174 | 36945 ft | 362 kts | 212° |
| 2026-05-06 20:40 | 32.71410 | -5.78973 | 36951 ft | 362 kts | 212° |
| 2026-05-06 20:41 | 32.66958 | -5.81775 | 36961 ft | 362 kts | 212° |
| 2026-05-06 20:41 | 32.62522 | -5.84591 | 36969 ft | 362 kts | 213° |
| 2026-05-06 20:42 | 32.58101 | -5.87428 | 36982 ft | 361 kts | 213° |
| 2026-05-06 20:42 | 32.53698 | -5.90252 | 36990 ft | 362 kts | 213° |
| 2026-05-06 20:43 | 32.49255 | -5.93101 | 36998 ft | 361 kts | 212° |
| 2026-05-06 20:43 | 32.44860 | -5.95912 | 37009 ft | 361 kts | 213° |
| 2026-05-06 20:44 | 32.40443 | -5.98728 | 37014 ft | 362 kts | 213° |
| 2026-05-06 20:44 | 32.36017 | -6.01555 | 37022 ft | 361 kts | 212° |
| 2026-05-06 20:45 | 32.31600 | -6.04362 | 37026 ft | 361 kts | 212° |
| 2026-05-06 20:45 | 32.27158 | -6.07189 | 37030 ft | 362 kts | 212° |
| 2026-05-06 20:46 | 32.22727 | -6.09998 | 37030 ft | 362 kts | 213° |
| 2026-05-06 20:46 | 32.18308 | -6.12806 | 37028 ft | 363 kts | 212° |
| 2026-05-06 20:47 | 32.13874 | -6.15616 | 37036 ft | 361 kts | 213° |
| 2026-05-06 20:47 | 32.09417 | -6.18439 | 37036 ft | 363 kts | 213° |
| 2026-05-06 20:48 | 32.04969 | -6.21259 | 37028 ft | 362 kts | 212° |
| 2026-05-06 20:48 | 32.02774 | -6.22644 | 36694 ft | 358 kts | 212° |
| 2026-05-06 20:48 | 32.00574 | -6.24033 | 35814 ft | 361 kts | 212° |
| 2026-05-06 20:48 | 31.98358 | -6.25434 | 34946 ft | 366 kts | 212° |
| 2026-05-06 20:49 | 31.96129 | -6.26844 | 34201 ft | 367 kts | 212° |
| 2026-05-06 20:49 | 31.93901 | -6.28250 | 33479 ft | 365 kts | 211° |
| 2026-05-06 20:49 | 31.91681 | -6.29647 | 32682 ft | 364 kts | 212° |
| 2026-05-06 20:49 | 31.89448 | -6.31048 | 31741 ft | 367 kts | 212° |
| 2026-05-06 20:50 | 31.87172 | -6.32482 | 30711 ft | 371 kts | 212° |
| 2026-05-06 20:50 | 31.84909 | -6.33907 | 29695 ft | 374 kts | 212° |
| 2026-05-06 20:50 | 31.82606 | -6.35353 | 28765 ft | 376 kts | 212° |
| 2026-05-06 20:50 | 31.80324 | -6.36789 | 27938 ft | 377 kts | 212° |
| 2026-05-06 20:51 | 31.78021 | -6.38239 | 27277 ft | 374 kts | 212° |
| 2026-05-06 20:51 | 31.75738 | -6.39668 | 26713 ft | 369 kts | 212° |
| 2026-05-06 20:51 | 31.73497 | -6.41073 | 26195 ft | 365 kts | 212° |
| 2026-05-06 20:51 | 31.71256 | -6.42477 | 25687 ft | 360 kts | 212° |
| 2026-05-06 20:52 | 31.69070 | -6.43843 | 25205 ft | 356 kts | 212° |
| 2026-05-06 20:52 | 31.66896 | -6.45208 | 24739 ft | 352 kts | 212° |
| 2026-05-06 20:52 | 31.64764 | -6.46542 | 24292 ft | 349 kts | 212° |
| 2026-05-06 20:52 | 31.62631 | -6.47876 | 23847 ft | 346 kts | 212° |
| 2026-05-06 20:53 | 31.60516 | -6.49199 | 23417 ft | 344 kts | 213° |
| 2026-05-06 20:53 | 31.58385 | -6.50531 | 22998 ft | 347 kts | 213° |
| 2026-05-06 20:53 | 31.56240 | -6.51876 | 22573 ft | 358 kts | 212° |
| 2026-05-06 20:53 | 31.54013 | -6.53274 | 22132 ft | 364 kts | 212° |
| 2026-05-06 20:54 | 31.51752 | -6.54689 | 21655 ft | 379 kts | 212° |
| 2026-05-06 20:54 | 31.49439 | -6.56131 | 21135 ft | 377 kts | 212° |
| 2026-05-06 20:54 | 31.47129 | -6.57569 | 20589 ft | 374 kts | 211° |
| 2026-05-06 20:54 | 31.44835 | -6.58993 | 20029 ft | 373 kts | 211° |
| 2026-05-06 20:55 | 31.42536 | -6.60424 | 19470 ft | 371 kts | 211° |
| 2026-05-06 20:55 | 31.40295 | -6.61817 | 19090 ft | 365 kts | 211° |
| 2026-05-06 20:55 | 31.38082 | -6.63189 | 18821 ft | 355 kts | 211° |
| 2026-05-06 20:55 | 31.35916 | -6.64533 | 18618 ft | 344 kts | 211° |
| 2026-05-06 20:56 | 31.33835 | -6.65824 | 18420 ft | 331 kts | 211° |
| 2026-05-06 20:56 | 31.31873 | -6.67040 | 18277 ft | 307 kts | 211° |
| 2026-05-06 20:56 | 31.30001 | -6.68198 | 18058 ft | 301 kts | 211° |
| 2026-05-06 20:56 | 31.28150 | -6.69339 | 17648 ft | 301 kts | 211° |
| 2026-05-06 20:57 | 31.26295 | -6.70479 | 17242 ft | 301 kts | 211° |
| 2026-05-06 20:57 | 31.24447 | -6.71615 | 16849 ft | 301 kts | 210° |
| 2026-05-06 20:57 | 31.22594 | -6.72752 | 16472 ft | 300 kts | 210° |
| 2026-05-06 20:57 | 31.20750 | -6.73882 | 16089 ft | 300 kts | 210° |
| 2026-05-06 20:58 | 31.18899 | -6.75015 | 15690 ft | 300 kts | 210° |
| 2026-05-06 20:58 | 31.17065 | -6.76138 | 15308 ft | 299 kts | 210° |
| 2026-05-06 20:58 | 31.15152 | -6.77094 | 14904 ft | 301 kts | 194° |
| 2026-05-06 20:58 | 31.13071 | -6.77068 | 14520 ft | 308 kts | 170° |
| 2026-05-06 20:59 | 31.11109 | -6.75980 | 14127 ft | 317 kts | 146° |
| 2026-05-06 20:59 | 31.09473 | -6.74249 | 13771 ft | 317 kts | 141° |
| 2026-05-06 20:59 | 31.07875 | -6.72495 | 13429 ft | 315 kts | 141° |
| 2026-05-06 20:59 | 31.06284 | -6.70755 | 13115 ft | 312 kts | 141° |
| 2026-05-06 21:00 | 31.04686 | -6.69018 | 12685 ft | 313 kts | 141° |
| 2026-05-06 21:00 | 31.03108 | -6.67307 | 12352 ft | 310 kts | 141° |
| 2026-05-06 21:00 | 31.01543 | -6.65616 | 12079 ft | 307 kts | 141° |
| 2026-05-06 21:00 | 30.99971 | -6.63919 | 11651 ft | 308 kts | 141° |
| 2026-05-06 21:01 | 30.98410 | -6.62232 | 11373 ft | 304 kts | 141° |
| 2026-05-06 21:01 | 30.96863 | -6.60563 | 10958 ft | 305 kts | 141° |
| 2026-05-06 21:01 | 30.95321 | -6.58901 | 10751 ft | 299 kts | 141° |
| 2026-05-06 21:01 | 30.93801 | -6.57263 | 10646 ft | 289 kts | 141° |
| 2026-05-06 21:02 | 30.92347 | -6.55710 | 10499 ft | 280 kts | 145° |
| 2026-05-06 21:02 | 30.90697 | -6.54714 | 10347 ft | 260 kts | 175° |
| 2026-05-06 21:02 | 30.88986 | -6.54963 | 10135 ft | 245 kts | 208° |
| 2026-05-06 21:02 | 30.87567 | -6.56041 | 9927 ft | 239 kts | 217° |
| 2026-05-06 21:03 | 30.86224 | -6.57160 | 9723 ft | 236 kts | 216° |
| 2026-05-06 21:03 | 30.84884 | -6.58218 | 9472 ft | 231 kts | 214° |
| 2026-05-06 21:03 | 30.83536 | -6.59228 | 9172 ft | 227 kts | 214° |
| 2026-05-06 21:03 | 30.82205 | -6.60197 | 8872 ft | 224 kts | 214° |
| 2026-05-06 21:04 | 30.81064 | -6.61396 | 8441 ft | 224 kts | 241° |
| 2026-05-06 21:04 | 30.80672 | -6.63108 | 8062 ft | 225 kts | 270° |
| 2026-05-06 21:04 | 30.81099 | -6.64850 | 7721 ft | 232 kts | 297° |
| 2026-05-06 21:04 | 30.81947 | -6.66470 | 7434 ft | 232 kts | 298° |
| 2026-05-06 21:05 | 30.82765 | -6.68085 | 7193 ft | 230 kts | 297° |
| 2026-05-06 21:05 | 30.83555 | -6.69650 | 7170 ft | 218 kts | 297° |
| 2026-05-06 21:05 | 30.84299 | -6.71121 | 7117 ft | 208 kts | 297° |
| 2026-05-06 21:05 | 30.85019 | -6.72551 | 6992 ft | 201 kts | 297° |
| 2026-05-06 21:06 | 30.85715 | -6.73939 | 6920 ft | 198 kts | 297° |
| 2026-05-06 21:06 | 30.86414 | -6.75329 | 6715 ft | 197 kts | 298° |
| 2026-05-06 21:06 | 30.87106 | -6.76707 | 6402 ft | 194 kts | 298° |
| 2026-05-06 21:06 | 30.87770 | -6.78028 | 6044 ft | 186 kts | 298° |
| 2026-05-06 21:07 | 30.88404 | -6.79285 | 5780 ft | 175 kts | 299° |
| 2026-05-06 21:07 | 30.89003 | -6.80476 | 5519 ft | 165 kts | 299° |
| 2026-05-06 21:07 | 30.89565 | -6.81598 | 5287 ft | 159 kts | 299° |
| 2026-05-06 21:07 | 30.90130 | -6.82723 | 5088 ft | 159 kts | 299° |
| 2026-05-06 21:08 | 30.90682 | -6.83824 | 4895 ft | 158 kts | 299° |
| 2026-05-06 21:08 | 30.91218 | -6.84889 | 4654 ft | 148 kts | 299° |
| 2026-05-06 21:08 | 30.91703 | -6.85891 | 4453 ft | 132 kts | 296° |
| 2026-05-06 21:08 | 30.92097 | -6.86810 | 4281 ft | 125 kts | 295° |
| 2026-05-06 21:09 | 30.92480 | -6.87710 | 4140 ft | 125 kts | 296° |
| 2026-05-06 21:09 | 30.92882 | -6.88612 | 3944 ft | 124 kts | 297° |
| 2026-05-06 21:09 | 30.93274 | -6.89494 | 3779 ft | 122 kts | 296° |
| 2026-05-06 21:09 | 30.93636 | -6.90327 | 3740 ft | 103 kts | 297° |
| 2026-05-06 21:10 | 30.93877 | -6.90877 | 3756 ft | 46 kts | 297° |
| 2026-05-06 21:10 | 30.93993 | -6.91127 | 3763 ft | 16 kts | 305° |
| 2026-05-06 21:10 | 30.94023 | -6.91179 | 3764 ft | 2 kts | 266° |
| 2026-05-06 21:10 | 30.94000 | -6.91158 | 3763 ft | 11 kts | 121° |
| 2026-05-06 21:11 | 30.93944 | -6.91033 | 3760 ft | 19 kts | 117° |
| 2026-05-06 21:11 | 30.93870 | -6.90864 | 3756 ft | 28 kts | 117° |
| 2026-05-06 21:11 | 30.93796 | -6.90694 | 3751 ft | 13 kts | 117° |
| 2026-05-06 21:11 | 30.93740 | -6.90636 | 3750 ft | 8 kts | 185° |
| 2026-05-06 21:12 | 30.93697 | -6.90656 | 3751 ft | 5 kts | 207° |
| 2026-05-06 21:12 | 30.93675 | -6.90669 | 3752 ft | 1 kts | 207° |
| 2026-05-06 21:12 | 30.93662 | -6.90677 | 3752 ft | 2 kts | 208° |
| 2026-05-06 21:12 | 30.93638 | -6.90690 | 3752 ft | 3 kts | 199° |
| 2026-05-06 21:13 | 30.93614 | -6.90691 | 3752 ft | 5 kts | 169° |
| 2026-05-06 21:13 | 30.93575 | -6.90678 | 3751 ft | 4 kts | 187° |
| 2026-05-06 21:13 | 30.93549 | -6.90688 | 3751 ft | 2 kts | 201° |
| 2026-05-06 21:13 | 30.93536 | -6.90695 | 3751 ft | 0 kts | 226° |
| 2026-05-06 21:14 | 30.93538 | -6.90700 | 3752 ft | 0 kts | 316° |
| 2026-05-06 21:14 | 30.93540 | -6.90701 | 3752 ft | 0 kts | 330° |
| 2026-05-06 21:14 | 30.93546 | -6.90705 | 3752 ft | 2 kts | 335° |
| 2026-05-06 21:14 | 30.93552 | -6.90708 | 3752 ft | 0 kts | 336° |